Current | Forecast
Updated: 7:00 AM JST on October 17, 2017
Observed at Kagoshima Airport, Japan
Temperature 66°F
Humidity 94%
Dew Point 64°F
Wind SSE at 4 mph
Pressure 30.06 in (Steady)
Conditions Light Rain
Visibility 5.0 miles
UV 0 out of 16
Clouds (FEW) : 200 ft
Mostly Cloudy (BKN) : 4000 ft
Mostly Cloudy (BKN) : 10000 ft
Yesterday's Maximum 73°F
Yesterday's Minimum 68°F approx.
Yesterday's Cooling Degree Days 6 approx.
Sunrise6:21 AM JST
Sunset5:43 PM JST
Moon Rise3:35 AM JST
Moon Set4:27 PM JST
Moon PhaseMoon Phase
Waning Crescent
Raw METARMETAR RJFK 162200Z 15003KT 120V180 8000 -RA BCFG FEW002 BKN040 BKN100 19/18 Q1018 RMK 1ST002 5SC040 7AC100 A3006 FG NW-NE


Monday
. High: 71° F.
Tuesday
. High: 71° F.
Wednesday
. High: 71° F.
Thursday
. High: 73° F.
Friday
. High: 66° F.
Saturday
. High: 77° F.
Sunday
. High: 75° F.
Monday
. High: 71° F.

Units: English | Metric

Find the Weather for any City, State or Zipcode, or Country:

U.S. State List | Severe Weather | Tropical Storms | Ski Conditions
United States | Canada | Central America | South America | Asia | Europe | Australia | Africa | Islands

Weather Underground

© Copyright 2017
The Weather Company, LLC